Time;durP1;ratioP1;P1;durP2;ratioP2;P2;SDS_P1;SDS_P2;PMS_P1;PMS_P2;Temp;Humidity;BMP_temperature;BMP_pressure;BME280_temperature;BME280_humidity;BME280_pressure;Samples;Min_cycle;Max_cycle;Signal;HPM_P1;HPM_P2
2023/12/22 00:01:26;;;;;;;360.37;197.47;;;;;;;;;;4412740;32;320396;-76
2023/12/22 00:03:53;;;;;;;399.53;204.07;;;;;;;;;;4398505;32;321000;-76
2023/12/22 00:06:19;;;;;;;388.03;206.10;;;;;;;;;;4411321;32;320692;-75
2023/12/22 00:08:45;;;;;;;383.63;196.13;;;;;;;;;;4399789;32;320629;-76
2023/12/22 00:11:13;;;;;;;378.03;207.20;;;;;;;;;;4413021;32;320557;-76
2023/12/22 00:13:40;;;;;;;385.63;207.00;;;;;;;;;;4400842;32;320545;-75
2023/12/22 00:16:07;;;;;;;394.10;203.90;;;;;;;;;;4409455;32;320301;-75
2023/12/22 00:18:34;;;;;;;411.47;213.07;;;;;;;;;;4402516;32;320487;-74
2023/12/22 00:21:00;;;;;;;380.50;210.80;;;;;;;;;;4410807;32;320669;-76
2023/12/22 00:23:27;;;;;;;393.53;215.17;;;;;;;;;;4412368;32;320830;-75
2023/12/22 00:25:54;;;;;;;358.63;190.10;;;;;;;;;;4399738;32;320487;-76
2023/12/22 00:28:22;;;;;;;364.03;190.13;;;;;;;;;;4410925;32;320371;-75
2023/12/22 00:30:49;;;;;;;352.23;188.57;;;;;;;;;;4401342;32;320818;-76
2023/12/22 00:33:15;;;;;;;337.47;174.60;;;;;;;;;;4411266;32;320458;-76
2023/12/22 00:35:42;;;;;;;324.87;175.30;;;;;;;;;;4401805;32;320566;-76
2023/12/22 00:38:10;;;;;;;325.97;167.97;;;;;;;;;;4409707;32;320940;-76
2023/12/22 00:40:36;;;;;;;314.90;166.10;;;;;;;;;;4400879;32;320743;-76
2023/12/22 00:43:03;;;;;;;291.07;153.33;;;;;;;;;;4411500;32;320442;-74
2023/12/22 00:45:32;;;;;;;300.17;150.23;;;;;;;;;;4412638;32;320374;-76
2023/12/22 00:47:58;;;;;;;304.03;158.63;;;;;;;;;;4395464;32;419671;-76
2023/12/22 00:50:26;;;;;;;329.23;148.97;;;;;;;;;;4411985;32;320810;-75
2023/12/22 00:52:52;;;;;;;300.87;129.43;;;;;;;;;;4400927;32;339349;-75
2023/12/22 00:55:19;;;;;;;291.93;124.67;;;;;;;;;;4412548;32;320717;-76
2023/12/22 00:57:46;;;;;;;309.83;126.43;;;;;;;;;;4398845;32;320086;-75
2023/12/22 01:00:14;;;;;;;289.43;126.10;;;;;;;;;;4410607;32;320765;-76
2023/12/22 01:02:42;;;;;;;252.77;117.03;;;;;;;;;;4401123;32;320922;-77
2023/12/22 01:05:09;;;;;;;232.70;104.53;;;;;;;;;;4410507;32;320689;-75
2023/12/22 01:07:36;;;;;;;213.33;99.97;;;;;;;;;;4401469;32;320862;-75
2023/12/22 01:10:17;;;;;;;221.27;108.10;;;;;;;;;;4407283;32;342430;-78
2023/12/22 01:12:44;;;;;;;230.30;101.70;;;;;;;;;;4399247;32;320656;-74
2023/12/22 01:15:10;;;;;;;189.17;91.27;;;;;;;;;;4410767;32;320712;-76
2023/12/22 01:17:37;;;;;;;185.07;89.50;;;;;;;;;;4401802;32;319952;-75
2023/12/22 01:20:06;;;;;;;194.97;92.13;;;;;;;;;;4409752;32;318676;-76
2023/12/22 01:22:34;;;;;;;227.80;104.30;;;;;;;;;;4401820;32;320223;-75
2023/12/22 01:25:01;;;;;;;220.80;105.47;;;;;;;;;;4411095;32;320674;-76
2023/12/22 01:27:31;;;;;;;211.40;104.47;;;;;;;;;;4410475;32;320355;-76
2023/12/22 01:30:00;;;;;;;246.77;108.40;;;;;;;;;;4398993;32;420073;-76
2023/12/22 01:32:32;;;;;;;231.33;109.73;;;;;;;;;;4413379;32;320502;-77
2023/12/22 01:35:00;;;;;;;269.07;111.47;;;;;;;;;;4401386;32;420015;-75
2023/12/22 01:37:28;;;;;;;262.07;114.80;;;;;;;;;;4414778;32;320121;-74
2023/12/22 01:39:55;;;;;;;269.40;118.33;;;;;;;;;;4401995;32;320489;-76
2023/12/22 01:42:22;;;;;;;263.43;117.60;;;;;;;;;;4413436;32;320604;-77
2023/12/22 01:44:48;;;;;;;270.13;120.37;;;;;;;;;;4402872;32;320384;-74
2023/12/22 01:47:15;;;;;;;278.17;124.43;;;;;;;;;;4414300;32;320483;-76
2023/12/22 01:49:42;;;;;;;271.40;130.13;;;;;;;;;;4401892;32;320260;-74
2023/12/22 01:52:10;;;;;;;290.97;135.57;;;;;;;;;;4414970;32;320432;-76
2023/12/22 01:54:38;;;;;;;298.23;137.83;;;;;;;;;;4403079;32;320700;-74
2023/12/22 01:57:05;;;;;;;287.00;131.80;;;;;;;;;;4414431;32;319936;-75
2023/12/22 01:59:34;;;;;;;274.07;129.83;;;;;;;;;;4404275;32;320714;-74
2023/12/22 02:02:02;;;;;;;280.03;131.90;;;;;;;;;;4412191;32;319993;-75
2023/12/22 02:04:30;;;;;;;278.60;127.40;;;;;;;;;;4415383;32;320440;-76
2023/12/22 02:06:58;;;;;;;264.33;115.30;;;;;;;;;;4402116;32;421314;-75
2023/12/22 02:09:25;;;;;;;259.53;116.70;;;;;;;;;;4415185;32;319991;-79
2023/12/22 02:11:53;;;;;;;259.73;124.23;;;;;;;;;;4402193;32;320410;-75
2023/12/22 02:14:21;;;;;;;258.30;116.43;;;;;;;;;;4413613;32;319721;-74
2023/12/22 02:16:53;;;;;;;280.60;123.37;;;;;;;;;;4403944;32;320823;-76
2023/12/22 02:19:34;;;;;;;244.60;116.57;;;;;;;;;;4414051;32;320912;-75
2023/12/22 02:22:01;;;;;;;254.57;115.90;;;;;;;;;;4398429;32;419767;-76
2023/12/22 02:24:30;;;;;;;263.17;118.87;;;;;;;;;;4412524;32;320612;-74
2023/12/22 02:27:02;;;;;;;258.50;123.43;;;;;;;;;;4399623;32;419707;-76
2023/12/22 02:29:32;;;;;;;268.77;121.50;;;;;;;;;;4417568;32;319777;-76
2023/12/22 02:32:03;;;;;;;259.93;118.37;;;;;;;;;;4398482;32;421610;-75
2023/12/22 02:34:31;;;;;;;243.80;116.27;;;;;;;;;;4412420;32;320580;-76
2023/12/22 02:36:58;;;;;;;242.90;114.43;;;;;;;;;;4400465;32;419118;-74
2023/12/22 02:39:25;;;;;;;246.40;118.73;;;;;;;;;;4413527;32;320397;-76
2023/12/22 02:41:53;;;;;;;222.67;111.63;;;;;;;;;;4400662;32;319666;-77
2023/12/22 02:44:20;;;;;;;219.80;109.37;;;;;;;;;;4412900;32;320329;-73
2023/12/22 02:46:47;;;;;;;209.50;104.97;;;;;;;;;;4403165;32;320487;-78
2023/12/22 02:49:14;;;;;;;239.10;112.80;;;;;;;;;;4412903;32;319755;-77
2023/12/22 02:51:41;;;;;;;193.50;99.07;;;;;;;;;;4402423;32;320495;-75
2023/12/22 02:54:07;;;;;;;159.53;85.83;;;;;;;;;;4411747;32;318984;-77
2023/12/22 02:56:34;;;;;;;144.20;80.67;;;;;;;;;;4403649;32;319856;-75
2023/12/22 02:59:02;;;;;;;157.20;80.13;;;;;;;;;;4412132;32;318871;-74
2023/12/22 03:01:29;;;;;;;150.70;80.77;;;;;;;;;;4411766;32;319303;-75
2023/12/22 03:03:55;;;;;;;155.80;83.93;;;;;;;;;;4399406;32;352127;-76
2023/12/22 03:06:22;;;;;;;151.93;83.03;;;;;;;;;;4413511;32;319526;-75
2023/12/22 03:08:49;;;;;;;138.83;76.17;;;;;;;;;;4401928;32;320124;-74
2023/12/22 03:11:16;;;;;;;143.43;77.10;;;;;;;;;;4410961;32;348636;-76
2023/12/22 03:13:42;;;;;;;145.20;76.23;;;;;;;;;;4403187;32;319910;-75
2023/12/22 03:16:10;;;;;;;138.80;75.83;;;;;;;;;;4412688;32;319404;-74
2023/12/22 03:18:39;;;;;;;137.43;75.83;;;;;;;;;;4402973;32;318686;-74
2023/12/22 03:21:06;;;;;;;155.70;85.37;;;;;;;;;;4412267;32;319422;-75
2023/12/22 03:23:33;;;;;;;151.07;82.20;;;;;;;;;;4401597;32;319398;-73
2023/12/22 03:26:04;;;;;;;143.17;80.87;;;;;;;;;;4408901;32;319399;-75
2023/12/22 03:28:33;;;;;;;155.00;82.47;;;;;;;;;;4412870;32;319310;-75
2023/12/22 03:31:00;;;;;;;137.73;78.43;;;;;;;;;;4399156;32;418084;-75
2023/12/22 03:33:28;;;;;;;141.57;80.60;;;;;;;;;;4412193;32;345912;-75
2023/12/22 03:35:55;;;;;;;166.17;88.60;;;;;;;;;;4398357;32;326501;-74
2023/12/22 03:38:21;;;;;;;168.00;91.70;;;;;;;;;;4412883;32;318551;-75
2023/12/22 03:40:48;;;;;;;196.17;107.20;;;;;;;;;;4401981;32;319674;-75
2023/12/22 03:43:14;;;;;;;208.73;107.70;;;;;;;;;;4411439;32;320387;-74
2023/12/22 03:45:40;;;;;;;224.37;116.60;;;;;;;;;;4400914;32;320698;-74
2023/12/22 03:48:07;;;;;;;238.20;119.53;;;;;;;;;;4412719;32;320594;-75
2023/12/22 03:50:36;;;;;;;233.33;118.97;;;;;;;;;;4402360;32;320645;-74
2023/12/22 03:53:02;;;;;;;228.40;115.37;;;;;;;;;;4411946;32;319827;-74
2023/12/22 03:55:29;;;;;;;213.73;112.73;;;;;;;;;;4412741;32;320599;-75
2023/12/22 03:57:56;;;;;;;218.83;116.80;;;;;;;;;;4399036;32;320558;-75
2023/12/22 04:00:23;;;;;;;221.93;117.23;;;;;;;;;;4411272;32;320430;-75
2023/12/22 04:02:49;;;;;;;231.27;120.93;;;;;;;;;;4402243;32;320543;-75
2023/12/22 04:05:16;;;;;;;237.37;124.13;;;;;;;;;;4412812;32;320345;-75
2023/12/22 04:07:44;;;;;;;227.53;123.67;;;;;;;;;;4400647;32;320303;-75
2023/12/22 04:10:11;;;;;;;253.00;125.60;;;;;;;;;;4412278;32;319778;-75
2023/12/22 04:12:38;;;;;;;242.77;123.37;;;;;;;;;;4401160;32;320389;-75
2023/12/22 04:15:06;;;;;;;222.43;115.60;;;;;;;;;;4412478;32;321040;-74
2023/12/22 04:17:33;;;;;;;246.23;123.70;;;;;;;;;;4401678;32;320317;-74
2023/12/22 04:19:59;;;;;;;217.13;113.90;;;;;;;;;;4410063;32;321937;-75
2023/12/22 04:22:26;;;;;;;205.17;110.20;;;;;;;;;;4412344;32;320494;-75
2023/12/22 04:24:54;;;;;;;189.47;101.47;;;;;;;;;;4401155;32;320438;-74
2023/12/22 04:27:21;;;;;;;162.37;91.50;;;;;;;;;;4411828;32;320476;-75
2023/12/22 04:29:48;;;;;;;162.20;85.60;;;;;;;;;;4398189;32;318723;-74
2023/12/22 04:32:14;;;;;;;172.23;91.57;;;;;;;;;;4412445;32;319328;-74
2023/12/22 04:34:41;;;;;;;163.17;91.00;;;;;;;;;;4402611;32;319860;-75
2023/12/22 04:37:08;;;;;;;197.33;101.90;;;;;;;;;;4411083;32;319477;-74
2023/12/22 04:39:35;;;;;;;179.07;94.53;;;;;;;;;;4400989;32;320374;-74
2023/12/22 04:42:06;;;;;;;192.60;98.03;;;;;;;;;;4407184;32;357589;-75
2023/12/22 04:44:32;;;;;;;174.17;95.87;;;;;;;;;;4401674;32;319491;-75
2023/12/22 04:46:59;;;;;;;160.40;89.67;;;;;;;;;;4411849;32;319444;-75
2023/12/22 04:49:26;;;;;;;174.20;93.23;;;;;;;;;;4411065;32;318804;-75
2023/12/22 04:51:52;;;;;;;167.73;93.57;;;;;;;;;;4399268;32;319430;-75
2023/12/22 04:54:19;;;;;;;170.30;93.90;;;;;;;;;;4411587;32;319498;-75
2023/12/22 04:56:46;;;;;;;184.47;95.43;;;;;;;;;;4400948;32;319443;-76
2023/12/22 04:59:14;;;;;;;173.53;92.53;;;;;;;;;;4411118;32;350024;-75
2023/12/22 05:01:42;;;;;;;171.87;97.70;;;;;;;;;;4399693;32;354847;-74
2023/12/22 05:04:09;;;;;;;187.87;96.47;;;;;;;;;;4412381;32;319329;-75
2023/12/22 05:06:36;;;;;;;172.43;93.43;;;;;;;;;;4404119;32;319495;-74
2023/12/22 05:09:03;;;;;;;169.13;94.17;;;;;;;;;;4413488;32;319308;-74
2023/12/22 05:11:30;;;;;;;156.87;93.13;;;;;;;;;;4413917;32;319471;-75
2023/12/22 05:13:56;;;;;;;174.97;92.60;;;;;;;;;;4402471;32;319439;-75
2023/12/22 05:16:25;;;;;;;168.80;93.67;;;;;;;;;;4415266;32;319641;-74
2023/12/22 05:18:51;;;;;;;166.30;94.27;;;;;;;;;;4405217;32;319527;-75
2023/12/22 05:21:18;;;;;;;194.17;102.17;;;;;;;;;;4414838;32;318537;-75
2023/12/22 05:23:45;;;;;;;185.97;96.57;;;;;;;;;;4401547;32;320199;-73
2023/12/22 05:26:17;;;;;;;185.63;100.00;;;;;;;;;;4412654;32;319525;-75
2023/12/22 05:28:44;;;;;;;183.47;99.60;;;;;;;;;;4404483;32;320262;-75
2023/12/22 05:31:11;;;;;;;178.80;99.17;;;;;;;;;;4413363;32;319421;-74
2023/12/22 05:33:40;;;;;;;178.10;99.10;;;;;;;;;;4403808;32;319350;-74
2023/12/22 05:36:07;;;;;;;191.40;97.67;;;;;;;;;;4411729;32;319450;-73
2023/12/22 05:38:37;;;;;;;174.73;97.27;;;;;;;;;;4403430;32;319602;-74
2023/12/22 05:41:04;;;;;;;189.37;100.53;;;;;;;;;;4414312;32;318947;-74
2023/12/22 05:43:31;;;;;;;185.67;98.33;;;;;;;;;;4414207;32;320532;-74
2023/12/22 05:45:58;;;;;;;175.50;95.97;;;;;;;;;;4398537;32;420194;-74
2023/12/22 05:48:25;;;;;;;177.03;98.67;;;;;;;;;;4413458;32;319746;-75
2023/12/22 05:50:53;;;;;;;181.17;103.03;;;;;;;;;;4404268;32;319506;-73
2023/12/22 05:53:20;;;;;;;181.93;101.50;;;;;;;;;;4414073;32;320547;-75
2023/12/22 05:55:46;;;;;;;175.87;102.27;;;;;;;;;;4401298;32;319755;-74
2023/12/22 05:58:13;;;;;;;175.90;102.03;;;;;;;;;;4413178;32;320856;-74
2023/12/22 06:00:40;;;;;;;178.53;99.90;;;;;;;;;;4402112;32;320466;-76
2023/12/22 06:03:07;;;;;;;189.47;101.60;;;;;;;;;;4413966;32;319450;-75
2023/12/22 06:05:33;;;;;;;194.40;103.07;;;;;;;;;;4403758;32;320249;-75
2023/12/22 06:08:01;;;;;;;198.90;106.67;;;;;;;;;;4409931;32;320296;-76
2023/12/22 06:10:28;;;;;;;187.70;106.03;;;;;;;;;;4412864;32;320360;-76
2023/12/22 06:12:57;;;;;;;203.77;106.67;;;;;;;;;;4402421;32;320288;-75
2023/12/22 06:15:24;;;;;;;192.63;104.57;;;;;;;;;;4412039;32;320145;-76
2023/12/22 06:17:51;;;;;;;192.30;112.20;;;;;;;;;;4400303;32;325350;-75
2023/12/22 06:20:17;;;;;;;193.77;107.83;;;;;;;;;;4413712;32;320267;-74
2023/12/22 06:22:44;;;;;;;178.53;103.00;;;;;;;;;;4402495;32;320449;-76
2023/12/22 06:25:12;;;;;;;190.87;107.30;;;;;;;;;;4412160;32;332160;-75
2023/12/22 06:27:39;;;;;;;179.27;100.17;;;;;;;;;;4402397;32;320624;-74
2023/12/22 06:30:07;;;;;;;178.60;104.93;;;;;;;;;;4411184;32;320471;-74
2023/12/22 06:32:34;;;;;;;183.53;99.70;;;;;;;;;;4402472;32;320834;-73
2023/12/22 06:35:01;;;;;;;171.83;98.70;;;;;;;;;;4413271;32;318778;-75
2023/12/22 06:37:28;;;;;;;168.33;96.83;;;;;;;;;;4414042;32;319202;-75
2023/12/22 06:39:54;;;;;;;173.83;100.50;;;;;;;;;;4401126;32;318813;-74
2023/12/22 06:42:23;;;;;;;167.63;98.57;;;;;;;;;;4413023;32;319967;-74
2023/12/22 06:44:50;;;;;;;176.23;98.87;;;;;;;;;;4397418;32;319209;-75
2023/12/22 06:47:17;;;;;;;162.13;88.53;;;;;;;;;;4423688;32;319255;-74
2023/12/22 06:49:44;;;;;;;133.10;79.53;;;;;;;;;;4402540;32;318836;-73
2023/12/22 06:52:11;;;;;;;125.23;74.03;;;;;;;;;;4410880;32;318631;-74
2023/12/22 06:54:38;;;;;;;133.60;76.50;;;;;;;;;;4402897;32;319135;-75
2023/12/22 06:57:05;;;;;;;160.90;81.83;;;;;;;;;;4413288;32;319247;-75
2023/12/22 06:59:36;;;;;;;147.80;80.50;;;;;;;;;;4412181;32;319392;-75
2023/12/22 07:02:34;;;;;;;124.63;70.83;;;;;;;;;;4452913;31;20359;-72
2023/12/22 07:05:36;;;;;;;108.20;66.20;;;;;;;;;;4417356;32;318188;-73
2023/12/22 07:08:05;;;;;;;101.77;63.70;;;;;;;;;;4399096;32;418305;-75
2023/12/22 07:10:31;;;;;;;115.83;70.27;;;;;;;;;;4425435;32;319507;-75
2023/12/22 07:12:58;;;;;;;126.37;71.13;;;;;;;;;;4412028;32;418312;-73
2023/12/22 07:15:25;;;;;;;118.70;76.43;;;;;;;;;;4423889;32;318728;-74
2023/12/22 07:17:53;;;;;;;149.50;89.53;;;;;;;;;;4411786;32;319354;-74
2023/12/22 07:20:20;;;;;;;160.27;95.50;;;;;;;;;;4423845;32;319180;-73
2023/12/22 07:22:47;;;;;;;179.10;102.13;;;;;;;;;;4414329;32;319438;-73
2023/12/22 07:25:14;;;;;;;236.50;131.17;;;;;;;;;;4424066;32;319875;-75
2023/12/22 07:27:41;;;;;;;241.43;132.30;;;;;;;;;;4414814;32;329483;-74
2023/12/22 07:30:11;;;;;;;202.53;113.43;;;;;;;;;;4422440;32;320585;-70
2023/12/22 07:32:38;;;;;;;190.27;111.73;;;;;;;;;;4414160;32;320550;-70
2023/12/22 07:35:07;;;;;;;193.73;113.70;;;;;;;;;;4425179;32;319953;-70
2023/12/22 07:37:36;;;;;;;192.57;114.13;;;;;;;;;;4413913;32;320251;-70
2023/12/22 07:40:03;;;;;;;192.30;113.83;;;;;;;;;;4421467;32;320419;-71
2023/12/22 07:42:30;;;;;;;223.57;125.33;;;;;;;;;;4423058;32;320292;-70
2023/12/22 07:44:58;;;;;;;198.47;113.93;;;;;;;;;;4412134;32;351885;-70
2023/12/22 07:47:26;;;;;;;213.77;122.57;;;;;;;;;;4425319;32;320458;-72
2023/12/22 07:49:53;;;;;;;193.73;116.20;;;;;;;;;;4412514;32;320583;-70
2023/12/22 07:52:21;;;;;;;208.87;119.63;;;;;;;;;;4424452;32;320386;-70
2023/12/22 07:54:48;;;;;;;229.70;128.30;;;;;;;;;;4416486;32;354281;-71
2023/12/22 07:57:15;;;;;;;229.80;140.93;;;;;;;;;;4424359;32;320416;-71
2023/12/22 07:59:42;;;;;;;288.80;188.13;;;;;;;;;;4414852;32;319989;-71
2023/12/22 08:02:08;;;;;;;224.77;131.93;;;;;;;;;;4424273;32;320540;-71
2023/12/22 08:04:35;;;;;;;202.43;115.90;;;;;;;;;;4414250;32;320391;-71
2023/12/22 08:07:02;;;;;;;211.63;123.60;;;;;;;;;;4423463;32;320531;-70
2023/12/22 08:09:30;;;;;;;209.23;121.13;;;;;;;;;;4423446;32;320745;-74
2023/12/22 08:11:57;;;;;;;204.97;122.50;;;;;;;;;;4405036;32;419491;-73
2023/12/22 08:14:24;;;;;;;207.47;123.40;;;;;;;;;;4413623;32;320625;-74
2023/12/22 08:16:51;;;;;;;205.93;121.60;;;;;;;;;;4404272;32;320540;-74
2023/12/22 08:19:18;;;;;;;234.37;129.57;;;;;;;;;;4414225;32;320151;-73
2023/12/22 08:21:45;;;;;;;213.83;120.30;;;;;;;;;;4391855;32;320385;-72
2023/12/22 08:24:12;;;;;;;185.97;104.13;;;;;;;;;;4411555;32;358400;-74
2023/12/22 08:26:42;;;;;;;177.83;106.30;;;;;;;;;;4402928;32;320497;-72
2023/12/22 08:29:08;;;;;;;171.40;105.97;;;;;;;;;;4414300;32;320305;-73
2023/12/22 08:31:35;;;;;;;193.00;109.80;;;;;;;;;;4401784;32;320279;-72
2023/12/22 08:34:02;;;;;;;210.40;121.23;;;;;;;;;;4409356;32;333264;-73
2023/12/22 08:36:29;;;;;;;183.13;108.80;;;;;;;;;;4413491;32;319811;-74
2023/12/22 08:38:55;;;;;;;190.10;113.17;;;;;;;;;;4403118;32;320436;-75
2023/12/22 08:41:22;;;;;;;205.33;124.93;;;;;;;;;;4412648;32;320470;-73
2023/12/22 08:43:50;;;;;;;207.43;125.43;;;;;;;;;;4400764;32;320654;-72
2023/12/22 08:46:18;;;;;;;212.70;128.53;;;;;;;;;;4413305;32;320385;-74
2023/12/22 08:48:44;;;;;;;206.30;125.37;;;;;;;;;;4403820;32;320302;-73
2023/12/22 08:51:11;;;;;;;206.63;124.60;;;;;;;;;;4412594;32;320736;-73
2023/12/22 08:53:38;;;;;;;178.23;105.60;;;;;;;;;;4401448;32;359285;-73
2023/12/22 08:56:07;;;;;;;240.13;144.57;;;;;;;;;;4400712;32;320252;-73
2023/12/22 08:58:33;;;;;;;268.57;165.87;;;;;;;;;;4413618;32;320201;-74
2023/12/22 09:01:02;;;;;;;225.47;135.90;;;;;;;;;;4400996;32;320496;-71
2023/12/22 09:03:30;;;;;;;214.27;131.40;;;;;;;;;;4412495;32;320268;-72
2023/12/22 09:05:57;;;;;;;238.50;137.73;;;;;;;;;;4402976;32;320109;-73
2023/12/22 09:08:23;;;;;;;221.17;143.30;;;;;;;;;;4413331;32;320364;-73
2023/12/22 09:10:50;;;;;;;213.70;133.73;;;;;;;;;;4411694;32;320412;-73
2023/12/22 09:13:17;;;;;;;203.67;119.50;;;;;;;;;;4397435;32;420782;-73
2023/12/22 09:15:46;;;;;;;189.50;117.70;;;;;;;;;;4403418;32;320431;-75
2023/12/22 09:18:14;;;;;;;199.07;121.07;;;;;;;;;;4403399;32;320464;-73
2023/12/22 09:20:41;;;;;;;224.33;126.17;;;;;;;;;;4412304;32;320490;-75
2023/12/22 09:23:10;;;;;;;208.40;122.03;;;;;;;;;;4398368;32;319794;-74
2023/12/22 09:25:36;;;;;;;200.77;119.20;;;;;;;;;;4411775;32;319640;-73
2023/12/22 09:28:04;;;;;;;206.33;120.97;;;;;;;;;;4402380;32;320290;-73
2023/12/22 09:30:31;;;;;;;173.60;107.07;;;;;;;;;;4413493;32;320453;-74
2023/12/22 09:32:58;;;;;;;190.30;114.27;;;;;;;;;;4402363;32;320455;-73
2023/12/22 09:35:27;;;;;;;183.67;114.67;;;;;;;;;;4413446;32;319679;-74
2023/12/22 09:37:54;;;;;;;183.50;110.13;;;;;;;;;;4402713;32;320449;-73
2023/12/22 09:40:21;;;;;;;176.40;105.67;;;;;;;;;;4411259;32;355833;-76
2023/12/22 09:42:48;;;;;;;185.17;108.20;;;;;;;;;;4412350;32;320505;-73
2023/12/22 09:45:19;;;;;;;174.63;107.73;;;;;;;;;;4399922;32;320258;-74
2023/12/22 09:47:47;;;;;;;176.70;111.37;;;;;;;;;;4413648;32;320352;-72
2023/12/22 09:50:15;;;;;;;218.17;126.50;;;;;;;;;;4401267;32;359001;-74
2023/12/22 09:52:45;;;;;;;221.70;130.33;;;;;;;;;;4413130;32;320408;-72
2023/12/22 09:55:13;;;;;;;229.80;135.80;;;;;;;;;;4400853;32;320523;-73
2023/12/22 09:57:40;;;;;;;214.50;122.73;;;;;;;;;;4413063;32;320698;-74
2023/12/22 10:00:11;;;;;;;186.27;119.33;;;;;;;;;;4400795;32;320353;-72
2023/12/22 10:02:38;;;;;;;206.50;122.33;;;;;;;;;;4412283;32;320355;-73
2023/12/22 10:05:05;;;;;;;197.43;118.63;;;;;;;;;;4399903;32;320274;-72
2023/12/22 10:07:33;;;;;;;181.13;111.70;;;;;;;;;;4411879;32;320753;-72
2023/12/22 10:10:02;;;;;;;167.33;98.87;;;;;;;;;;4403162;32;320889;-73
2023/12/22 10:12:30;;;;;;;162.37;94.13;;;;;;;;;;4412950;32;319065;-74
2023/12/22 10:14:57;;;;;;;147.50;90.47;;;;;;;;;;4401932;32;318825;-73
2023/12/22 10:17:25;;;;;;;160.90;98.27;;;;;;;;;;4410399;32;319836;-74
2023/12/22 10:19:51;;;;;;;176.37;108.17;;;;;;;;;;4411999;32;317897;-75
2023/12/22 10:22:18;;;;;;;208.77;114.27;;;;;;;;;;4398388;32;419836;-73
2023/12/22 10:24:47;;;;;;;213.47;124.90;;;;;;;;;;4411008;32;333181;-73
2023/12/22 10:27:16;;;;;;;192.03;117.73;;;;;;;;;;4400189;32;319947;-74
2023/12/22 10:29:43;;;;;;;191.07;116.20;;;;;;;;;;4412391;32;320540;-73
2023/12/22 10:32:10;;;;;;;184.20;109.87;;;;;;;;;;4402736;32;320550;-74
2023/12/22 10:34:37;;;;;;;197.60;114.30;;;;;;;;;;4412884;32;319849;-73
2023/12/22 10:37:04;;;;;;;192.70;114.87;;;;;;;;;;4398998;32;320719;-72
2023/12/22 10:39:32;;;;;;;177.23;111.47;;;;;;;;;;4411906;32;319768;-73
2023/12/22 10:42:00;;;;;;;193.67;120.37;;;;;;;;;;4401259;32;320032;-72
2023/12/22 10:44:29;;;;;;;184.37;117.73;;;;;;;;;;4411769;32;320797;-74
2023/12/22 10:46:58;;;;;;;193.27;120.53;;;;;;;;;;4402451;32;321071;-73
2023/12/22 10:49:26;;;;;;;213.00;127.40;;;;;;;;;;4412041;32;320522;-74
2023/12/22 10:51:53;;;;;;;217.77;130.60;;;;;;;;;;4403764;32;320452;-73
2023/12/22 10:54:21;;;;;;;234.87;136.80;;;;;;;;;;4413628;32;320627;-74
2023/12/22 10:56:48;;;;;;;183.60;114.97;;;;;;;;;;4411019;32;320911;-74
2023/12/22 10:59:17;;;;;;;210.03;127.30;;;;;;;;;;4399470;32;320578;-73
2023/12/22 11:01:51;;;;;;;202.77;120.30;;;;;;;;;;4411320;32;319852;-73
2023/12/22 11:04:22;;;;;;;190.47;117.07;;;;;;;;;;4399015;32;419796;-73
2023/12/22 11:06:53;;;;;;;197.20;118.50;;;;;;;;;;4412213;32;320530;-72
2023/12/22 11:09:24;;;;;;;223.53;127.67;;;;;;;;;;4397034;32;419323;-73
2023/12/22 11:11:52;;;;;;;242.07;140.40;;;;;;;;;;4410991;32;320092;-72
2023/12/22 11:14:20;;;;;;;236.00;140.90;;;;;;;;;;4399124;32;419436;-73
2023/12/22 11:16:49;;;;;;;208.33;123.00;;;;;;;;;;4410068;32;347214;-75
2023/12/22 11:19:16;;;;;;;194.43;120.00;;;;;;;;;;4398666;32;320804;-74
2023/12/22 11:21:44;;;;;;;213.00;133.40;;;;;;;;;;4410559;32;320492;-74
2023/12/22 11:24:14;;;;;;;203.50;119.77;;;;;;;;;;4401766;32;320727;-74
2023/12/22 11:26:42;;;;;;;189.90;116.23;;;;;;;;;;4411455;32;320660;-75
2023/12/22 11:29:11;;;;;;;131.13;78.50;;;;;;;;;;4399425;32;320706;-74
2023/12/22 11:31:39;;;;;;;96.17;64.73;;;;;;;;;;4410942;32;319444;-75
2023/12/22 11:34:09;;;;;;;74.00;48.37;;;;;;;;;;4402296;32;318677;-75
2023/12/22 11:36:37;;;;;;;53.53;35.87;;;;;;;;;;4411759;32;317818;-75
2023/12/22 11:39:04;;;;;;;48.03;28.23;;;;;;;;;;4398584;32;318541;-75
2023/12/22 11:41:35;;;;;;;54.40;34.53;;;;;;;;;;4410914;32;318439;-76
2023/12/22 11:44:04;;;;;;;258.50;150.23;;;;;;;;;;4400952;32;317884;-77
2023/12/22 11:46:32;;;;;;;252.10;152.27;;;;;;;;;;4411103;32;319985;-76
2023/12/22 11:48:59;;;;;;;247.73;145.40;;;;;;;;;;4401290;32;320438;-73
2023/12/22 11:51:34;;;;;;;218.30;132.77;;;;;;;;;;4414688;32;319669;-77
2023/12/22 11:54:01;;;;;;;241.97;147.63;;;;;;;;;;4404983;32;320365;-77
2023/12/22 11:56:29;;;;;;;208.93;125.33;;;;;;;;;;4413623;32;320655;-75
2023/12/22 11:58:58;;;;;;;173.00;106.90;;;;;;;;;;4402844;32;320406;-76
2023/12/22 12:01:28;;;;;;;188.63;112.47;;;;;;;;;;4412722;32;320517;-74
2023/12/22 12:03:58;;;;;;;188.47;116.87;;;;;;;;;;4401384;32;320416;-76
2023/12/22 12:06:36;;;;;;;157.63;100.13;;;;;;;;;;4413104;32;320344;-76
2023/12/22 12:09:09;;;;;;;150.73;96.77;;;;;;;;;;4398902;32;419364;-75
2023/12/22 12:12:11;;;;;;;146.27;89.53;;;;;;;;;;4403264;32;319454;-75
2023/12/22 12:14:44;;;;;;;155.57;93.60;;;;;;;;;;4404635;32;319277;-75
2023/12/22 12:17:11;;;;;;;145.13;91.73;;;;;;;;;;4413417;32;319455;-76
2023/12/22 12:19:41;;;;;;;160.70;93.53;;;;;;;;;;4402140;32;319645;-74
2023/12/22 12:22:09;;;;;;;151.40;92.30;;;;;;;;;;4412346;32;343558;-76
2023/12/22 12:24:38;;;;;;;138.90;81.37;;;;;;;;;;4402926;32;319062;-74
2023/12/22 12:27:05;;;;;;;133.73;85.27;;;;;;;;;;4411014;32;320067;-75
2023/12/22 12:29:33;;;;;;;148.20;91.27;;;;;;;;;;4413469;32;335637;-73
2023/12/22 12:32:04;;;;;;;156.13;97.87;;;;;;;;;;4399888;32;409438;-74
2023/12/22 12:34:32;;;;;;;143.70;92.90;;;;;;;;;;4413013;32;318706;-74
2023/12/22 12:36:59;;;;;;;161.13;93.77;;;;;;;;;;4400679;32;319385;-76
2023/12/22 12:39:31;;;;;;;156.00;93.77;;;;;;;;;;4414019;32;319360;-74
2023/12/22 12:42:01;;;;;;;154.17;96.87;;;;;;;;;;4403876;32;318952;-75
2023/12/22 12:44:28;;;;;;;145.30;90.40;;;;;;;;;;4414000;32;318898;-75
2023/12/22 12:46:55;;;;;;;149.77;87.32;;;;;;;;;;4400226;32;348385;-75
2023/12/22 12:49:26;;;;;;;131.00;83.47;;;;;;;;;;4414325;32;319491;-76
2023/12/22 12:51:53;;;;;;;242.93;137.93;;;;;;;;;;4402314;32;319464;-77
2023/12/22 12:54:20;;;;;;;126.60;83.50;;;;;;;;;;4412561;32;319803;-75
2023/12/22 12:56:49;;;;;;;134.77;83.23;;;;;;;;;;4401801;32;319485;-74
2023/12/22 12:59:18;;;;;;;136.80;85.27;;;;;;;;;;4413279;32;319758;-74
2023/12/22 13:01:47;;;;;;;131.80;83.40;;;;;;;;;;4401825;32;319348;-75
2023/12/22 13:04:14;;;;;;;134.43;83.73;;;;;;;;;;4413587;32;318682;-74
2023/12/22 13:06:45;;;;;;;135.77;88.70;;;;;;;;;;4401180;32;349990;-73
2023/12/22 13:09:13;;;;;;;118.20;75.63;;;;;;;;;;4411619;32;319728;-74
2023/12/22 13:11:41;;;;;;;99.07;65.80;;;;;;;;;;4403604;32;319485;-76
2023/12/22 13:14:10;;;;;;;89.43;56.37;;;;;;;;;;4412702;32;318550;-74
2023/12/22 13:16:38;;;;;;;66.83;42.77;;;;;;;;;;4392255;32;395405;-74
2023/12/22 13:19:06;;;;;;;62.23;37.40;;;;;;;;;;4400851;32;318383;-74
2023/12/22 13:21:33;;;;;;;66.57;36.73;;;;;;;;;;4413103;32;317572;-75
2023/12/22 13:24:08;;;;;;;37.23;21.90;;;;;;;;;;4403445;32;318774;-73
2023/12/22 13:26:36;;;;;;;87.37;50.80;;;;;;;;;;4408071;32;318356;-74
2023/12/22 13:29:02;;;;;;;156.90;96.50;;;;;;;;;;4411236;32;318299;-76
2023/12/22 13:31:31;;;;;;;150.90;100.30;;;;;;;;;;4412507;32;319821;-78
2023/12/22 13:33:58;;;;;;;164.93;100.00;;;;;;;;;;4402639;32;320709;-78
2023/12/22 13:36:25;;;;;;;172.03;97.53;;;;;;;;;;4411534;32;319899;-77
2023/12/22 13:38:53;;;;;;;161.70;98.07;;;;;;;;;;4400436;32;319356;-78
2023/12/22 13:41:20;;;;;;;161.50;97.43;;;;;;;;;;4413641;32;319632;-76
2023/12/22 13:43:47;;;;;;;184.47;110.57;;;;;;;;;;4402204;32;327249;-76
2023/12/22 13:46:15;;;;;;;180.63;109.80;;;;;;;;;;4413459;32;320630;-76
2023/12/22 13:48:44;;;;;;;172.57;109.67;;;;;;;;;;4403431;32;320648;-76